createdAt,value
2022-10-14T00:01:16.589Z,101815.34
2022-10-14T00:03:45.028Z,101817.22
2022-10-14T00:06:16.784Z,101817.00
2022-10-14T00:08:47.829Z,101804.97
2022-10-14T00:11:18.733Z,101798.94
2022-10-14T00:13:47.002Z,101799.41
2022-10-14T00:16:26.878Z,101799.81
2022-10-14T00:18:57.270Z,101800.66
2022-10-14T00:21:27.436Z,101807.72
2022-10-14T00:23:56.280Z,101803.34
2022-10-14T00:26:33.440Z,101808.56
2022-10-14T00:29:02.270Z,101811.13
2022-10-14T00:31:33.330Z,101804.03
2022-10-14T00:34:02.147Z,101798.63
2022-10-14T00:36:30.200Z,101798.19
2022-10-14T00:38:57.691Z,101803.16
2022-10-14T00:41:28.694Z,101795.72
2022-10-14T00:43:58.995Z,101801.59
2022-10-14T00:46:29.864Z,101804.72
2022-10-14T00:49:08.051Z,101802.28
2022-10-14T00:51:36.864Z,101805.16
2022-10-14T00:54:06.964Z,101802.69
2022-10-14T00:56:35.722Z,101804.56
2022-10-14T00:59:07.341Z,101804.75
2022-10-14T01:01:34.791Z,101797.13
2022-10-14T01:04:02.516Z,101793.59
2022-10-14T01:06:37.384Z,101792.78
2022-10-14T01:09:30.465Z,101789.00
2022-10-14T01:12:28.712Z,101788.81
2022-10-14T01:15:32.323Z,101783.06
2022-10-14T01:18:16.723Z,101770.59
2022-10-14T01:20:47.459Z,101779.50
2022-10-14T01:23:25.568Z,101778.88
2022-10-14T01:26:26.021Z,101782.16
2022-10-14T01:29:33.283Z,101783.44
2022-10-14T01:32:11.336Z,101782.84
2022-10-14T01:34:47.575Z,101777.00
2022-10-14T01:37:22.486Z,101773.50
2022-10-14T01:39:56.083Z,101769.59
2022-10-14T01:42:29.811Z,101770.63
2022-10-14T01:45:03.581Z,101766.47
2022-10-14T01:47:36.551Z,101759.03
2022-10-14T01:50:13.581Z,101754.69
2022-10-14T01:52:48.092Z,101753.88
2022-10-14T01:55:20.701Z,101748.28
2022-10-14T01:57:52.145Z,101740.00
2022-10-14T02:00:19.890Z,101732.50
2022-10-14T02:02:47.469Z,101727.09
2022-10-14T02:05:24.603Z,101728.78
2022-10-14T02:08:04.773Z,101723.81
2022-10-14T02:10:44.631Z,101720.50
2022-10-14T02:13:36.200Z,101720.91
2022-10-14T02:16:26.499Z,101720.53
2022-10-14T02:19:17.277Z,101716.81
2022-10-14T02:22:08.823Z,101717.84
2022-10-14T02:24:41.516Z,101720.34
2022-10-14T02:27:17.192Z,101713.28
2022-10-14T02:29:47.815Z,101705.41
2022-10-14T02:32:19.629Z,101709.97
2022-10-14T02:34:55.177Z,101708.75
2022-10-14T02:37:24.345Z,101700.00
2022-10-14T02:40:00.207Z,101693.16
2022-10-14T02:42:29.634Z,101694.19
2022-10-14T02:45:01.943Z,101693.59
2022-10-14T02:47:29.863Z,101694.00
2022-10-14T02:49:57.826Z,101688.63
2022-10-14T02:52:27.278Z,101688.78
2022-10-14T02:54:54.884Z,101682.78
2022-10-14T02:57:22.937Z,101683.41
2022-10-14T02:59:50.733Z,101688.19
2022-10-14T03:02:26.267Z,101681.13
2022-10-14T03:04:54.035Z,101680.72
2022-10-14T03:07:21.619Z,101677.41
2022-10-14T03:09:53.615Z,101677.81
2022-10-14T03:12:29.704Z,101680.31
2022-10-14T03:14:58.695Z,101687.63
2022-10-14T03:17:28.011Z,101694.88
2022-10-14T03:20:00.390Z,101689.06
2022-10-14T03:22:27.974Z,101693.03
2022-10-14T03:24:56.742Z,101691.13
2022-10-14T03:27:50.978Z,101685.31
2022-10-14T03:30:24.320Z,101691.75
2022-10-14T03:32:59.447Z,101688.44
2022-10-14T03:35:49.957Z,101688.41
2022-10-14T03:38:42.807Z,101693.81
2022-10-14T03:41:42.005Z,101697.75
2022-10-14T03:44:13.650Z,101693.41
2022-10-14T03:46:48.377Z,101688.25
2022-10-14T03:49:16.259Z,101688.03
2022-10-14T03:51:44.136Z,101683.25
2022-10-14T03:54:18.998Z,101688.63
2022-10-14T03:56:46.585Z,101675.16
2022-10-14T03:59:16.878Z,101678.28
2022-10-14T04:01:49.384Z,101683.03
2022-10-14T04:04:24.583Z,101679.69
2022-10-14T04:06:52.559Z,101679.91
2022-10-14T04:09:22.516Z,101679.66
2022-10-14T04:11:52.493Z,101685.28
2022-10-14T04:14:42.862Z,101690.25
2022-10-14T04:17:11.628Z,101675.78
2022-10-14T04:19:38.988Z,101678.84
2022-10-14T04:22:07.151Z,101682.59
2022-10-14T04:24:35.022Z,101691.09
2022-10-14T04:27:02.856Z,101673.69
2022-10-14T04:29:40.472Z,101675.97
2022-10-14T04:32:15.711Z,101669.16
2022-10-14T04:34:43.657Z,101679.72
2022-10-14T04:37:14.832Z,101662.94
2022-10-14T04:40:00.345Z,101659.81
2022-10-14T04:42:30.315Z,101657.34
2022-10-14T04:45:02.801Z,101662.50
2022-10-14T04:47:48.336Z,101666.44
2022-10-14T04:50:20.491Z,101664.97
2022-10-14T04:53:13.097Z,101668.50
2022-10-14T04:55:53.428Z,101668.50
2022-10-14T04:58:25.972Z,101675.09
2022-10-14T05:01:00.455Z,101678.47
2022-10-14T05:03:32.935Z,101670.56
2022-10-14T05:06:05.008Z,101675.56
2022-10-14T05:08:34.545Z,101668.72
2022-10-14T05:11:03.012Z,101669.97
2022-10-14T05:13:43.448Z,101669.53
2022-10-14T05:16:11.926Z,101665.00
2022-10-14T05:18:40.132Z,101676.16
2022-10-14T05:21:10.742Z,101676.38
2022-10-14T05:24:01.006Z,101673.91
2022-10-14T05:26:32.295Z,101674.53
2022-10-14T05:29:04.586Z,101672.00
2022-10-14T05:31:32.872Z,101667.88
2022-10-14T05:34:17.684Z,101673.25
2022-10-14T05:36:46.375Z,101665.56
2022-10-14T05:39:14.819Z,101665.78
2022-10-14T05:41:45.298Z,101674.22
2022-10-14T05:44:15.546Z,101672.75
2022-10-14T05:46:45.587Z,101673.59
2022-10-14T05:49:13.672Z,101663.03
2022-10-14T05:51:45.399Z,101667.41
2022-10-14T05:54:20.232Z,101666.94
2022-10-14T05:56:50.910Z,101664.25
2022-10-14T05:59:19.920Z,101674.59
2022-10-14T06:01:48.673Z,101673.94
2022-10-14T06:04:21.489Z,101680.38
2022-10-14T06:06:50.756Z,101673.59
2022-10-14T06:09:18.632Z,101677.97
2022-10-14T06:11:46.996Z,101674.44
2022-10-14T06:14:15.871Z,101678.16
2022-10-14T06:16:43.787Z,101679.03
2022-10-14T06:19:11.501Z,101684.03
2022-10-14T06:21:39.131Z,101678.47
2022-10-14T06:24:06.913Z,101680.31
2022-10-14T06:26:34.522Z,101686.75
2022-10-14T06:29:02.694Z,101683.66
2022-10-14T06:31:32.456Z,101684.88
2022-10-14T06:34:08.019Z,101697.31
2022-10-14T06:36:37.744Z,101700.41
2022-10-14T06:39:05.843Z,101699.13
2022-10-14T06:41:33.949Z,101701.38
2022-10-14T06:44:04.704Z,101697.69
2022-10-14T06:46:32.351Z,101698.31
2022-10-14T06:48:59.817Z,101694.81
2022-10-14T06:51:27.411Z,101706.19
2022-10-14T06:53:55.049Z,101706.41
2022-10-14T06:56:23.167Z,101715.75
2022-10-14T06:58:56.902Z,101721.78
2022-10-14T07:01:25.780Z,101724.28
2022-10-14T07:03:56.763Z,101723.06
2022-10-14T07:06:38.176Z,101728.84
2022-10-14T07:09:41.164Z,101725.94
2022-10-14T07:12:09.577Z,101731.72
2022-10-14T07:14:37.039Z,101734.59
2022-10-14T07:17:04.798Z,101740.38
2022-10-14T07:19:32.373Z,101737.25
2022-10-14T07:22:04.020Z,101739.56
2022-10-14T07:24:33.603Z,101746.84
2022-10-14T07:27:06.171Z,101750.75
2022-10-14T07:29:33.473Z,101749.91
2022-10-14T07:32:01.529Z,101754.91
2022-10-14T07:34:38.906Z,101759.03
2022-10-14T07:37:06.553Z,101757.78
2022-10-14T07:39:34.688Z,101755.66
2022-10-14T07:42:02.464Z,101752.69
2022-10-14T07:44:30.402Z,101753.47
2022-10-14T07:46:59.538Z,101749.06
2022-10-14T07:49:27.406Z,101760.69
2022-10-14T07:51:55.486Z,101752.19
2022-10-14T07:54:26.260Z,101753.19
2022-10-14T07:56:54.117Z,101758.78
2022-10-14T07:59:22.364Z,101756.22
2022-10-14T08:01:51.579Z,101751.22
2022-10-14T08:04:19.862Z,101752.59
2022-10-14T08:06:49.035Z,101760.50
2022-10-14T08:09:19.167Z,101751.19
2022-10-14T08:11:47.675Z,101754.97
2022-10-14T08:14:15.535Z,101761.56
2022-10-14T08:16:42.795Z,101760.19
2022-10-14T08:19:14.485Z,101760.94
2022-10-14T08:21:44.195Z,101770.50
2022-10-14T08:24:12.040Z,101766.22
2022-10-14T08:26:49.168Z,101768.66
2022-10-14T08:29:16.857Z,101771.09
2022-10-14T08:31:44.913Z,101776.88
2022-10-14T08:34:12.524Z,101773.78
2022-10-14T08:36:40.023Z,101779.19
2022-10-14T08:41:44.896Z,101787.78
2022-10-14T08:44:19.806Z,101792.75
2022-10-14T08:46:58.826Z,101799.06
2022-10-14T08:49:35.801Z,101798.09
2022-10-14T08:52:18.579Z,101797.41
2022-10-14T08:54:57.319Z,101790.63
2022-10-14T08:57:34.129Z,101788.94
2022-10-14T09:00:03.028Z,101786.97
2022-10-14T09:02:47.780Z,101787.50
2022-10-14T09:05:24.245Z,101790.56
2022-10-14T09:07:54.888Z,101796.28
2022-10-14T09:10:38.049Z,101788.53
2022-10-14T09:13:19.037Z,101791.41
2022-10-14T09:15:51.038Z,101796.69
2022-10-14T09:18:33.963Z,101798.44
2022-10-14T09:21:04.642Z,101794.47
2022-10-14T09:23:32.156Z,101794.59
2022-10-14T09:26:12.402Z,101783.75
2022-10-14T09:28:44.129Z,101792.13
2022-10-14T09:31:15.318Z,101792.13
2022-10-14T09:33:47.439Z,101789.50
2022-10-14T09:36:24.991Z,101787.53
2022-10-14T09:38:56.580Z,101782.31
2022-10-14T09:41:32.955Z,101780.09
2022-10-14T09:44:23.244Z,101780.91
2022-10-14T09:46:55.799Z,101771.94
2022-10-14T09:49:40.799Z,101764.63
2022-10-14T09:52:21.502Z,101767.81
2022-10-14T09:54:57.388Z,101762.28
2022-10-14T09:57:26.873Z,101757.63
2022-10-14T10:00:02.371Z,101756.22
2022-10-14T10:02:43.954Z,101756.78
2022-10-14T10:05:22.944Z,101761.09
2022-10-14T10:08:11.722Z,101751.88
2022-10-14T10:10:39.278Z,101754.34
2022-10-14T10:13:45.503Z,101753.97
2022-10-14T10:16:19.390Z,101759.31
2022-10-14T10:18:47.005Z,101758.59
2022-10-14T10:21:25.238Z,101756.00
2022-10-14T10:23:59.353Z,101756.25
2022-10-14T10:26:35.078Z,101760.72
2022-10-14T10:29:05.551Z,101759.22
2022-10-14T10:31:36.286Z,101756.41
2022-10-14T10:34:32.594Z,101752.66
2022-10-14T10:37:09.195Z,101746.66
2022-10-14T10:39:38.845Z,101751.63
2022-10-14T10:42:22.405Z,101749.84
2022-10-14T10:45:28.569Z,101752.66
2022-10-14T10:48:07.020Z,101757.03
2022-10-14T10:51:11.650Z,101759.25
2022-10-14T10:54:14.859Z,101751.84
2022-10-14T10:57:03.434Z,101761.44
2022-10-14T11:03:53.190Z,101758.97
2022-10-14T11:06:49.062Z,101754.13
2022-10-14T11:10:32.247Z,101751.28
2022-10-14T11:13:29.349Z,101755.28
2022-10-14T11:16:19.775Z,101751.16
2022-10-14T11:18:58.816Z,101750.16
2022-10-14T11:21:50.659Z,101746.38
2022-10-14T11:24:34.502Z,101738.38
2022-10-14T11:27:25.408Z,101742.69
2022-10-14T11:30:11.707Z,101747.28
2022-10-14T11:32:55.749Z,101729.34
2022-10-14T11:36:06.057Z,101736.97
2022-10-14T11:39:00.580Z,101727.00
2022-10-14T11:41:35.989Z,101728.47
2022-10-14T11:44:40.969Z,101725.34
2022-10-14T11:47:33.201Z,101723.22
2022-10-14T11:50:23.589Z,101716.34
2022-10-14T11:53:10.740Z,101713.09
2022-10-14T11:55:44.446Z,101710.38
2022-10-14T11:58:21.614Z,101710.63
2022-10-14T12:00:55.570Z,101706.34
2022-10-14T12:03:44.141Z,101701.41
2022-10-14T12:06:23.316Z,101702.44
2022-10-14T12:09:14.043Z,101694.28
2022-10-14T12:11:51.852Z,101695.06
2022-10-14T12:14:34.481Z,101698.09
2022-10-14T12:17:41.039Z,101696.84
2022-10-14T12:20:27.672Z,101689.53
2022-10-14T12:22:59.424Z,101689.88
2022-10-14T12:25:28.696Z,101674.97
2022-10-14T12:27:57.106Z,101672.97
2022-10-14T12:30:41.781Z,101672.66
2022-10-14T12:33:11.898Z,101673.63
2022-10-14T12:35:54.945Z,101666.03
2022-10-14T12:38:22.288Z,101661.72
2022-10-14T12:40:50.036Z,101653.00
2022-10-14T12:43:24.409Z,101649.94
2022-10-14T12:46:03.367Z,101647.63
2022-10-14T12:48:34.334Z,101644.09
2022-10-14T12:51:24.717Z,101653.31
2022-10-14T12:54:07.793Z,101641.03
2022-10-14T12:56:40.099Z,101639.81
2022-10-14T12:59:22.542Z,101641.13
2022-10-14T13:02:15.650Z,101637.78
2022-10-14T13:04:55.338Z,101643.75
2022-10-14T13:07:40.040Z,101639.63
2022-10-14T13:10:46.808Z,101637.56
2022-10-14T13:13:39.181Z,101639.44
2022-10-14T13:16:07.872Z,101646.94
2022-10-14T13:18:37.280Z,101632.34
2022-10-14T13:21:09.686Z,101635.38
2022-10-14T13:23:50.495Z,101638.69
2022-10-14T13:26:32.719Z,101643.28
2022-10-14T13:29:17.955Z,101641.53
2022-10-14T13:32:12.272Z,101635.16
2022-10-14T13:35:17.239Z,101642.41
2022-10-14T13:37:54.611Z,101635.91
2022-10-14T13:40:35.406Z,101631.97
2022-10-14T13:43:20.491Z,101635.25
2022-10-14T13:46:03.952Z,101632.50
2022-10-14T13:48:33.270Z,101635.00
2022-10-14T13:51:31.891Z,101630.03
2022-10-14T13:54:23.989Z,101621.16
2022-10-14T13:57:59.938Z,101623.88
2022-10-14T14:00:42.696Z,101633.81
2022-10-14T14:03:21.305Z,101630.78
2022-10-14T14:05:49.940Z,101626.66
2022-10-14T14:08:40.969Z,101619.97
2022-10-14T14:11:18.506Z,101613.25
2022-10-14T14:14:07.185Z,101610.88
2022-10-14T14:16:40.523Z,101621.31
2022-10-14T14:19:19.322Z,101611.81
2022-10-14T14:21:46.715Z,101609.22
2022-10-14T14:24:24.548Z,101612.66
2022-10-14T14:26:57.656Z,101609.22
2022-10-14T14:29:58.405Z,101604.13
2022-10-14T14:32:38.756Z,101604.44
2022-10-14T14:35:18.100Z,101608.03
2022-10-14T14:37:56.118Z,101601.06
2022-10-14T14:40:29.953Z,101605.56
2022-10-14T14:43:03.521Z,101608.69
2022-10-14T14:45:37.449Z,101609.34
2022-10-14T14:48:14.238Z,101611.81
2022-10-14T14:50:44.839Z,101617.13
2022-10-14T14:53:22.178Z,101611.59
2022-10-14T14:56:00.738Z,101619.16
2022-10-14T14:58:34.053Z,101609.34
2022-10-14T15:01:03.267Z,101608.50
2022-10-14T15:04:12.873Z,101609.25
2022-10-14T15:06:39.531Z,101607.91
2022-10-14T15:09:48.633Z,101600.22
2022-10-14T15:12:27.398Z,101600.59
2022-10-14T15:14:59.603Z,101596.56
2022-10-14T15:17:34.675Z,101590.31
2022-10-14T15:20:05.154Z,101587.75
2022-10-14T15:22:44.859Z,101581.81
2022-10-14T15:25:18.414Z,101586.44
2022-10-14T15:27:56.391Z,101579.69
2022-10-14T15:30:32.150Z,101583.78
2022-10-14T15:33:03.052Z,101575.97
2022-10-14T15:35:30.816Z,101575.41
2022-10-14T15:37:58.595Z,101572.47
2022-10-14T15:40:33.168Z,101571.31
2022-10-14T15:43:00.410Z,101569.03
2022-10-14T15:45:34.691Z,101565.66
2022-10-14T15:48:07.395Z,101567.31
2022-10-14T15:50:39.934Z,101568.44
2022-10-14T15:53:09.480Z,101563.75
2022-10-14T15:55:37.941Z,101567.56
2022-10-14T15:58:06.631Z,101574.97
2022-10-14T16:00:34.510Z,101569.69
2022-10-14T16:03:06.171Z,101565.41
2022-10-14T16:05:33.897Z,101574.19
2022-10-14T16:08:02.048Z,101569.03
2022-10-14T16:10:32.052Z,101576.41
2022-10-14T16:13:02.417Z,101571.34
2022-10-14T16:15:39.339Z,101576.91
2022-10-14T16:18:06.648Z,101573.34
2022-10-14T16:20:34.314Z,101575.09
2022-10-14T16:23:04.700Z,101580.84
2022-10-14T16:25:44.277Z,101581.19
2022-10-14T16:28:13.400Z,101586.34
2022-10-14T16:30:45.245Z,101581.47
2022-10-14T16:33:12.494Z,101585.03
2022-10-14T16:35:40.024Z,101581.63
2022-10-14T16:38:07.585Z,101578.91
2022-10-14T16:40:36.829Z,101585.75
2022-10-14T16:43:08.072Z,101583.53
2022-10-14T16:45:37.769Z,101576.78
2022-10-14T16:48:10.685Z,101582.72
2022-10-14T16:50:44.766Z,101584.16
2022-10-14T16:53:32.915Z,101587.34
2022-10-14T16:56:05.205Z,101585.03
2022-10-14T16:58:38.375Z,101588.59
2022-10-14T17:01:10.233Z,101586.84
2022-10-14T17:03:43.835Z,101587.22
2022-10-14T17:06:12.860Z,101579.47
2022-10-14T17:08:41.572Z,101584.28
2022-10-14T17:11:10.173Z,101582.41
2022-10-14T17:13:38.779Z,101582.06
2022-10-14T17:16:06.992Z,101575.34
2022-10-14T17:18:35.966Z,101579.47
2022-10-14T17:21:09.438Z,101579.19
2022-10-14T17:23:37.755Z,101578.38
2022-10-14T17:26:06.026Z,101572.50
2022-10-14T17:28:33.596Z,101580.63
2022-10-14T17:31:04.308Z,101584.28
2022-10-14T17:33:31.871Z,101581.56
2022-10-14T17:36:00.688Z,101582.53
2022-10-14T17:38:35.507Z,101583.34
2022-10-14T17:41:09.782Z,101592.53
2022-10-14T17:43:39.447Z,101587.22
2022-10-14T17:46:12.676Z,101589.72
2022-10-14T17:48:43.758Z,101595.00
2022-10-14T17:51:13.162Z,101595.00
2022-10-14T17:53:41.151Z,101593.72
2022-10-14T17:56:11.899Z,101600.19
2022-10-14T17:58:40.545Z,101603.13
2022-10-14T18:01:11.030Z,101603.38
2022-10-14T18:03:44.275Z,101611.13
2022-10-14T18:06:16.646Z,101619.03
2022-10-14T18:08:46.117Z,101617.16
2022-10-14T18:11:14.240Z,101615.50
2022-10-14T18:13:42.430Z,101618.44
2022-10-14T18:16:13.772Z,101614.88
2022-10-14T18:18:44.137Z,101620.31
2022-10-14T18:21:11.627Z,101615.97
2022-10-14T18:23:41.309Z,101622.19
2022-10-14T18:26:15.578Z,101625.16
2022-10-14T18:28:50.013Z,101626.44
2022-10-14T18:31:20.266Z,101620.22
2022-10-14T18:33:49.504Z,101634.56
2022-10-14T18:36:24.007Z,101622.31
2022-10-14T18:38:57.829Z,101628.56
2022-10-14T18:41:26.640Z,101624.69
2022-10-14T18:44:00.853Z,101625.59
2022-10-14T18:46:32.185Z,101623.50
2022-10-14T18:49:01.587Z,101627.00
2022-10-14T18:51:35.275Z,101623.50
2022-10-14T18:54:07.150Z,101621.84
2022-10-14T18:56:39.017Z,101624.53
2022-10-14T18:59:20.713Z,101623.69
2022-10-14T19:01:53.614Z,101628.06
2022-10-14T19:04:24.462Z,101629.97
2022-10-14T19:06:52.220Z,101626.41
2022-10-14T19:09:22.459Z,101629.97
2022-10-14T19:11:54.094Z,101629.13
2022-10-14T19:14:22.576Z,101629.47
2022-10-14T19:16:50.300Z,101622.88
2022-10-14T19:19:20.056Z,101623.22
2022-10-14T19:21:54.739Z,101624.63
2022-10-14T19:24:22.924Z,101617.34
2022-10-14T19:26:50.782Z,101613.81
2022-10-14T19:29:18.685Z,101623.47
2022-10-14T19:31:46.839Z,101624.50
2022-10-14T19:34:26.927Z,101620.16
2022-10-14T19:36:58.080Z,101624.97
2022-10-14T19:39:25.517Z,101630.63
2022-10-14T19:41:56.249Z,101630.63
2022-10-14T19:44:27.689Z,101630.25
2022-10-14T19:46:59.519Z,101632.97
2022-10-14T19:49:37.713Z,101632.09
2022-10-14T19:52:05.821Z,101626.94
2022-10-14T19:54:37.438Z,101635.28
2022-10-14T19:57:22.545Z,101630.34
2022-10-14T19:59:51.267Z,101635.75
2022-10-14T20:02:19.943Z,101633.63
2022-10-14T20:04:47.447Z,101639.28
2022-10-14T20:07:20.109Z,101640.31
2022-10-14T20:09:58.105Z,101646.22
2022-10-14T20:12:33.538Z,101647.94
2022-10-14T20:15:04.423Z,101643.00
2022-10-14T20:17:31.960Z,101649.69
2022-10-14T20:19:59.967Z,101652.19
2022-10-14T20:22:28.017Z,101654.72
2022-10-14T20:24:55.901Z,101646.84
2022-10-14T20:27:24.603Z,101653.06
2022-10-14T20:29:54.607Z,101649.56
2022-10-14T20:32:22.513Z,101653.53
2022-10-14T20:34:54.813Z,101648.75
2022-10-14T20:37:28.051Z,101650.03
2022-10-14T20:39:57.949Z,101648.34
2022-10-14T20:42:35.032Z,101640.47
2022-10-14T20:45:04.848Z,101633.25
2022-10-14T20:47:38.220Z,101627.50
2022-10-14T20:50:10.687Z,101628.03
2022-10-14T20:52:42.267Z,101632.25
2022-10-14T20:55:11.109Z,101627.50
2022-10-14T20:57:39.920Z,101630.91
2022-10-14T21:00:11.274Z,101628.19
2022-10-14T21:02:39.833Z,101632.72
2022-10-14T21:05:11.545Z,101622.47
2022-10-14T21:07:39.784Z,101631.94
2022-10-14T21:10:14.816Z,101627.34
2022-10-14T21:12:45.333Z,101633.72
2022-10-14T21:15:19.011Z,101633.25
2022-10-14T21:18:05.358Z,101632.44
2022-10-14T21:20:36.860Z,101624.41
2022-10-14T21:23:05.806Z,101629.81
2022-10-14T21:25:55.922Z,101627.56
2022-10-14T21:28:25.764Z,101630.00
2022-10-14T21:30:57.386Z,101633.38
2022-10-14T21:33:24.722Z,101629.00
2022-10-14T21:35:56.404Z,101634.22
2022-10-14T21:38:25.691Z,101626.53
2022-10-14T21:40:52.990Z,101628.88
2022-10-14T21:43:24.690Z,101626.19
2022-10-14T21:45:53.834Z,101621.66
2022-10-14T21:48:24.090Z,101619.19
2022-10-14T21:51:13.274Z,101621.22
2022-10-14T21:53:45.576Z,101623.72
2022-10-14T21:56:18.968Z,101609.09
2022-10-14T21:58:48.798Z,101616.25
2022-10-14T22:01:52.982Z,101617.59
2022-10-14T22:04:23.488Z,101607.81
2022-10-14T22:06:55.873Z,101605.78
2022-10-14T22:09:24.218Z,101611.72
2022-10-14T22:11:54.121Z,101605.66
2022-10-14T22:14:21.859Z,101611.66
2022-10-14T22:16:49.961Z,101610.59
2022-10-14T22:19:17.952Z,101607.97
2022-10-14T22:21:46.640Z,101605.50
2022-10-14T22:24:15.514Z,101610.31
2022-10-14T22:26:43.327Z,101608.66
2022-10-14T22:29:15.738Z,101605.72
2022-10-14T22:31:47.706Z,101599.34
2022-10-14T22:34:16.245Z,101605.63
2022-10-14T22:36:45.586Z,101599.88
2022-10-14T22:39:17.493Z,101602.78
2022-10-14T22:41:45.269Z,101601.13
2022-10-14T22:44:15.182Z,101592.50
2022-10-14T22:46:42.933Z,101586.88
2022-10-14T22:49:10.555Z,101592.28
2022-10-14T22:51:43.371Z,101591.44
2022-10-14T22:54:17.027Z,101593.09
2022-10-14T22:56:48.489Z,101595.19
2022-10-14T22:59:34.506Z,101587.69
2022-10-14T23:02:11.872Z,101581.69
2022-10-14T23:04:58.217Z,101586.03
2022-10-14T23:07:29.783Z,101581.69
2022-10-14T23:10:05.423Z,101579.13
2022-10-14T23:12:37.478Z,101581.19
2022-10-14T23:15:39.794Z,101581.59
2022-10-14T23:18:19.855Z,101577.97
2022-10-14T23:20:54.644Z,101568.44
2022-10-14T23:23:27.625Z,101569.31
2022-10-14T23:26:02.050Z,101567.25
2022-10-14T23:28:55.285Z,101568.16
2022-10-14T23:31:39.168Z,101564.41
2022-10-14T23:34:15.528Z,101567.19
2022-10-14T23:36:45.400Z,101563.59
2022-10-14T23:39:16.167Z,101561.13
2022-10-14T23:41:54.239Z,101559.28
2022-10-14T23:44:31.807Z,101563.84
2022-10-14T23:47:43.638Z,101566.75
2022-10-14T23:50:41.001Z,101561.56
2022-10-14T23:53:41.875Z,101570.31
2022-10-14T23:56:18.742Z,101564.56
